Hovedside
METAR-TAF:

METAR-TAF

Lufthavner :

Weno, Mikronesia

breddegrad: 07-28N, lengdegrad: 151-51E, høyde over havet: 3 m

Gjeldene værobservasjon

Denne rapporten ble laget for 1 time og 7 minutter siden, klokken 09:50 UTC
Vind 4 kt fra skiftende retning
Temperatur 29°C
Luftfuktighet 79%
Trykk 1011 hPa
Sikt: 24.1 km
Få skyer i en høyde av 1400 ft
Spredte skyer i en høyde av 12000 ft
Brutte skyer i en høyde av 28000 ft

METAR: PTKK 210950Z VRB04KT 15SM FEW014 SCT120 BKN280 29/25 A2986 RMK SLP111 T02860245

Tid: 20:57 (10:57 UTC)

Varsel

Denne rapporten ble laget for 5 timer og 24 minutter siden, klokken 05:33 UTC
Varsel gyldig fra 21. klokken 06 UTC til 22. klokken 06 UTC
Vind 6 kt fra Sørvest
Sikt: 10 km
Spredte skyer i en høyde av 1400 ft
Brutte skyer i en høyde av 12000 ft
Overskyet i en høyde av 28000 ft
regnbyger i nærheten

TAF: PTKK 210533Z 2106/2206 22006KT P6SM VCSH SCT014 BKN120 OVC280

Værobservasjoner og værvarsel for over 4000 flyplasser (METAR- og TAF-rapporter).

Tilgjengelige stasjoner er representert av de røde og gule prikkene på kartet.

Hold musepekeren over prikken for å se navnet på stasjonen.

Klikk så for å se værobservasjoner og -varsler.

For å forandre kartet kan du klikke på den grønne knappen med svart kryss for å zoome inn, på den grønne knappen med strek for å zoome ut, eller på de grønne pilene for å se tilstøtende kart.


METAR-TAF: